Time;durP1;ratioP1;P1;durP2;ratioP2;P2;SDS_P1;SDS_P2;PMS_P1;PMS_P2;Temp;Humidity;BMP_temperature;BMP_pressure;BME280_temperature;BME280_humidity;BME280_pressure;Samples;Min_cycle;Max_cycle;Signal;HPM_P1;HPM_P2
2021/11/04 00:02:02;;;;;;;0.8;0.7;;;;;;;7.2;91.13477;921.9391;;;;
2021/11/04 00:04:27;;;;;;;0.9;0.7;;;;;;;7.22;90.99219;921.9631;;;;
2021/11/04 00:06:53;;;;;;;2.1;0.9;;;;;;;7.23;91.07129;921.9797;;;;
2021/11/04 00:09:18;;;;;;;0.8;0.8;;;;;;;7.29;91.0293;921.9612;;;;
2021/11/04 00:11:43;;;;;;;1.9;1.1;;;;;;;7.35;91.33594;921.9514;;;;
2021/11/04 00:14:10;;;;;;;0.8;0.6;;;;;;;7.21;90.51367;921.8864;;;;
2021/11/04 00:16:35;;;;;;;1.1;0.5;;;;;;;7.28;90.58594;921.8868;;;;
2021/11/04 00:19:00;;;;;;;0.3;0.3;;;;;;;7.3;90.56738;921.8859;;;;
2021/11/04 00:21:26;;;;;;;1;0.5;;;;;;;7.27;90.41406;921.837;;;;
2021/11/04 00:23:51;;;;;;;0.4;0.3;;;;;;;7.26;90.41211;921.7198;;;;
2021/11/04 00:26:16;;;;;;;2.3;0.4;;;;;;;7.21;90.40039;921.6292;;;;
2021/11/04 00:28:43;;;;;;;0.4;0.3;;;;;;;7.08;90.42871;921.5694;;;;
2021/11/04 00:31:09;;;;;;;0.4;0.3;;;;;;;6.97;90.47363;921.526;;;;
2021/11/04 00:33:34;;;;;;;0.3;0.3;;;;;;;6.97;91.1084;921.4611;;;;
2021/11/04 00:35:59;;;;;;;2;0.4;;;;;;;6.94;90.49121;921.5641;;;;
2021/11/04 00:38:24;;;;;;;0.4;0.4;;;;;;;6.91;88.85449;921.6473;;;;
2021/11/04 00:40:50;;;;;;;0.4;0.4;;;;;;;6.81;89.78516;921.7371;;;;
2021/11/04 00:43:15;;;;;;;0.4;0.4;;;;;;;6.83;90.30957;921.7236;;;;
2021/11/04 00:45:40;;;;;;;1;0.5;;;;;;;6.96;90.4043;921.7729;;;;
2021/11/04 00:48:05;;;;;;;1;0.7;;;;;;;6.95;89.02051;921.7674;;;;
2021/11/04 00:50:32;;;;;;;0.5;0.4;;;;;;;7.03;88.21094;921.8513;;;;
2021/11/04 00:52:57;;;;;;;0.7;0.5;;;;;;;6.97;88.58496;921.8923;;;;
2021/11/04 00:55:22;;;;;;;1.7;0.5;;;;;;;6.98;87.95215;921.9611;;;;
2021/11/04 00:57:48;;;;;;;0.8;0.6;;;;;;;6.92;88.56055;921.8514;;;;
2021/11/04 01:00:12;;;;;;;0.4;0.4;;;;;;;6.79;89.41699;921.8191;;;;
2021/11/04 01:02:37;;;;;;;0.3;0.3;;;;;;;6.66;90.2168;921.9484;;;;
2021/11/04 01:05:03;;;;;;;0.8;0.4;;;;;;;6.75;89.75879;922.1158;;;;
2021/11/04 01:07:29;;;;;;;0.2;0.2;;;;;;;6.78;88.69238;922.058;;;;
2021/11/04 01:09:54;;;;;;;0.8;0.4;;;;;;;6.77;89.2207;921.9829;;;;
2021/11/04 01:12:21;;;;;;;0.5;0.3;;;;;;;6.49;90.69141;921.992;;;;
2021/11/04 01:14:46;;;;;;;0.6;0.6;;;;;;;6.53;91.03809;922.0497;;;;
2021/11/04 01:17:12;;;;;;;0.8;0.5;;;;;;;6.53;90.79004;922.0172;;;;
2021/11/04 01:19:37;;;;;;;1.1;0.7;;;;;;;6.5;90.84082;921.95;;;;
2021/11/04 01:22:04;;;;;;;0.4;0.4;;;;;;;6.5;90.41113;921.8742;;;;
2021/11/04 01:24:29;;;;;;;0.6;0.6;;;;;;;6.53;89.98633;921.8069;;;;
2021/11/04 01:26:55;;;;;;;0.7;0.5;;;;;;;6.59;90.08887;921.787;;;;
2021/11/04 01:29:20;;;;;;;1.7;0.5;;;;;;;6.51;90.41113;921.8378;;;;
2021/11/04 01:31:46;;;;;;;1.1;0.7;;;;;;;6.42;90.48242;921.9305;;;;
2021/11/04 01:34:11;;;;;;;0.9;0.5;;;;;;;6.54;90.2373;922.0955;;;;
2021/11/04 01:36:38;;;;;;;0.3;0.3;;;;;;;6.4;86.04688;922.3325;;;;
2021/11/04 01:39:03;;;;;;;0.5;0.3;;;;;;;6.07;86.31934;922.3276;;;;
2021/11/04 01:41:29;;;;;;;0.3;0.3;;;;;;;6.13;88.51074;922.338;;;;
2021/11/04 01:43:54;;;;;;;0.3;0.3;;;;;;;6.04;88.91016;922.0694;;;;
2021/11/04 01:50:05;;;;;;;0.3;0.2;;;;;;;6.05;88.6416;921.9556;;;;
2021/11/04 01:52:31;;;;;;;0.7;0.3;;;;;;;5.99;87.44336;921.8809;;;;
2021/11/04 01:54:56;;;;;;;0.1;0.1;;;;;;;5.98;87.0332;921.8937;;;;
2021/11/04 01:57:21;;;;;;;0.3;0.2;;;;;;;5.9;87.48145;921.9529;;;;
2021/11/04 01:59:47;;;;;;;0.2;0.2;;;;;;;5.89;87.96387;921.91;;;;
2021/11/04 02:02:12;;;;;;;0.2;0.2;;;;;;;5.92;87.81348;921.8692;;;;
2021/11/04 02:04:37;;;;;;;0.4;0.4;;;;;;;6;86.98242;921.8691;;;;
2021/11/04 02:07:02;;;;;;;0.2;0.2;;;;;;;5.91;86.79688;921.8257;;;;
2021/11/04 02:09:27;;;;;;;0.9;0.5;;;;;;;5.93;87.49902;921.9877;;;;
2021/11/04 02:11:52;;;;;;;0.5;0.4;;;;;;;5.96;87.28906;921.851;;;;
2021/11/04 02:14:17;;;;;;;0.7;0.6;;;;;;;5.49;88.16406;921.6445;;;;
2021/11/04 02:16:45;;;;;;;0.6;0.3;;;;;;;5.25;88.75879;921.464;;;;
2021/11/04 02:19:10;;;;;;;0.9;0.3;;;;;;;5.11;89.04395;921.4587;;;;
2021/11/04 02:21:35;;;;;;;0.5;0.2;;;;;;;4.86;89.28613;921.658;;;;
2021/11/04 02:24:00;;;;;;;1.1;0.3;;;;;;;5.06;89.58496;921.9097;;;;
2021/11/04 02:26:25;;;;;;;0.6;0.3;;;;;;;5.23;88.39355;922.0336;;;;
2021/11/04 02:28:50;;;;;;;0.5;0.3;;;;;;;5.32;87.92773;921.9771;;;;
2021/11/04 02:32:12;;;;;;;0.3;0.3;;;;;;;5.39;88.78711;921.9803;;;;
2021/11/04 02:34:40;;;;;;;0.3;0.3;;;;;;;5.27;88.90723;921.9981;;;;
2021/11/04 02:37:05;;;;;;;0.2;0.2;;;;;;;5.1;88.06152;922.1267;;;;
2021/11/04 02:39:30;;;;;;;0.2;0.2;;;;;;;5.19;88.00098;922.0379;;;;
2021/11/04 02:41:55;;;;;;;0.3;0.3;;;;;;;4.97;88.81543;921.9579;;;;
2021/11/04 02:44:25;;;;;;;0.3;0.3;;;;;;;4.99;89.08691;921.7949;;;;
2021/11/04 02:46:48;;;;;;;0.3;0.3;;;;;;;4.83;89.14355;921.5901;;;;
2021/11/04 02:49:13;;;;;;;0.5;0.3;;;;;;;4.88;90.42871;921.4025;;;;
2021/11/04 02:51:39;;;;;;;0.3;0.3;;;;;;;4.95;88.87695;921.5211;;;;
2021/11/04 02:54:04;;;;;;;0.4;0.4;;;;;;;4.97;88.49609;921.6259;;;;
2021/11/04 02:56:32;;;;;;;0.3;0.3;;;;;;;4.86;87.67285;921.7108;;;;
2021/11/04 02:58:57;;;;;;;0.3;0.3;;;;;;;4.71;88.02637;921.6855;;;;
2021/11/04 03:01:22;;;;;;;0.3;0.3;;;;;;;4.78;89.35742;921.3207;;;;
2021/11/04 03:03:48;;;;;;;0.9;0.3;;;;;;;4.93;88.09375;921.2079;;;;
2021/11/04 03:06:15;;;;;;;0.6;0.4;;;;;;;4.97;87.83301;921.3784;;;;
2021/11/04 03:08:39;;;;;;;0.8;0.4;;;;;;;4.9;87.61719;921.5248;;;;
2021/11/04 03:11:06;;;;;;;0.2;0.2;;;;;;;4.9;88.10156;921.6825;;;;
2021/11/04 03:13:31;;;;;;;0.5;0.4;;;;;;;4.91;87.95508;922.035;;;;
2021/11/04 03:15:58;;;;;;;1;0.4;;;;;;;5.08;86.01758;922.1882;;;;
2021/11/04 03:18:23;;;;;;;0.8;0.4;;;;;;;5;87.64648;922.0764;;;;
2021/11/04 03:20:53;;;;;;;0.5;0.4;;;;;;;4.93;87.87988;921.8876;;;;
2021/11/04 03:23:18;;;;;;;0.3;0.3;;;;;;;4.91;87.98828;921.8719;;;;
2021/11/04 03:25:43;;;;;;;0.2;0.2;;;;;;;4.99;87.32715;921.7491;;;;
2021/11/04 03:28:27;;;;;;;0.9;0.5;;;;;;;5.02;87.75195;921.6209;;;;
2021/11/04 03:30:52;;;;;;;0.3;0.3;;;;;;;4.94;86.99316;921.4595;;;;
2021/11/04 03:33:27;;;;;;;0.3;0.3;;;;;;;4.99;86.86719;921.4509;;;;
2021/11/04 03:37:08;;;;;;;0.9;0.2;;;;;;;4.82;87.42871;921.5499;;;;
2021/11/04 03:39:36;;;;;;;0.2;0.2;;;;;;;4.87;86.39258;921.8828;;;;
2021/11/04 03:42:01;;;;;;;0.2;0.2;;;;;;;4.84;87.68066;921.9819;;;;
2021/11/04 03:46:51;;;;;;;0.9;0.3;;;;;;;4.88;89.43652;921.8914;;;;
2021/11/04 03:49:17;;;;;;;0.3;0.3;;;;;;;4.82;90.10156;922.0914;;;;
2021/11/04 03:51:42;;;;;;;1.5;0.4;;;;;;;4.82;89.33496;921.9897;;;;
2021/11/04 03:54:08;;;;;;;0.9;0.9;;;;;;;4.92;88.90527;922.0209;;;;
2021/11/04 03:56:34;;;;;;;0.7;0.7;;;;;;;4.97;88.63281;922.2963;;;;
2021/11/04 03:58:59;;;;;;;0.9;0.6;;;;;;;4.97;87.72168;922.4249;;;;
2021/11/04 04:02:29;;;;;;;0.7;0.7;;;;;;;4.99;88.14258;922.5748;;;;
2021/11/04 04:04:55;;;;;;;0.6;0.5;;;;;;;4.98;88.75879;922.4745;;;;
2021/11/04 04:07:23;;;;;;;0.3;0.3;;;;;;;5.14;88.43164;922.3738;;;;
2021/11/04 04:09:48;;;;;;;1.5;0.5;;;;;;;5.08;89.39941;922.2316;;;;
2021/11/04 04:12:13;;;;;;;1.1;1;;;;;;;5.05;90.09277;922.2433;;;;
2021/11/04 04:14:39;;;;;;;1.4;1.3;;;;;;;4.99;89.07617;922.41;;;;
2021/11/04 04:17:06;;;;;;;1.4;1.3;;;;;;;5.01;89.76758;922.666;;;;
2021/11/04 04:19:31;;;;;;;1.3;1.2;;;;;;;4.99;89.69629;922.7333;;;;
2021/11/04 04:21:56;;;;;;;1.2;1.1;;;;;;;5.02;88.95996;922.7148;;;;
2021/11/04 04:24:22;;;;;;;2.4;2;;;;;;;5.04;89.8877;922.4508;;;;
2021/11/04 04:26:48;;;;;;;1.6;1.5;;;;;;;4.96;91.06543;922.4691;;;;
2021/11/04 04:29:15;;;;;;;1.7;1.6;;;;;;;4.9;91.36914;922.4648;;;;
2021/11/04 04:31:42;;;;;;;1.5;1.4;;;;;;;4.86;91.29199;922.5183;;;;
2021/11/04 04:34:10;;;;;;;2;1.5;;;;;;;4.85;90.99707;922.5923;;;;
2021/11/04 04:36:35;;;;;;;1;0.9;;;;;;;4.7;90.14258;922.6622;;;;
2021/11/04 04:39:02;;;;;;;1;0.8;;;;;;;4.73;90.59863;922.6197;;;;
2021/11/04 04:41:27;;;;;;;0.9;0.9;;;;;;;4.75;90.15332;922.5694;;;;
2021/11/04 04:43:53;;;;;;;0.8;0.8;;;;;;;4.86;90.98633;922.5182;;;;
2021/11/04 04:46:20;;;;;;;1.2;1.1;;;;;;;4.83;90.95801;922.6277;;;;
2021/11/04 04:48:46;;;;;;;1.2;1.1;;;;;;;4.91;91.12109;922.6707;;;;
2021/11/04 04:51:12;;;;;;;1.8;1.1;;;;;;;4.88;90.62012;922.6342;;;;
2021/11/04 04:53:42;;;;;;;0.8;0.8;;;;;;;4.78;89.29004;922.5892;;;;
2021/11/04 04:56:11;;;;;;;0.7;0.7;;;;;;;4.85;89.8252;922.6294;;;;
2021/11/04 04:58:36;;;;;;;1.4;0.9;;;;;;;4.97;89.64746;922.6986;;;;
2021/11/04 05:01:04;;;;;;;1.2;0.8;;;;;;;5.02;89.51172;922.7827;;;;
2021/11/04 05:03:29;;;;;;;0.9;0.9;;;;;;;5;89.9707;922.7839;;;;
2021/11/04 05:05:56;;;;;;;1.2;1.1;;;;;;;5.11;90.4082;922.6766;;;;
2021/11/04 05:08:22;;;;;;;1.1;1;;;;;;;5.04;90.54004;922.741;;;;
2021/11/04 05:10:54;;;;;;;1.1;1.1;;;;;;;4.95;90.80371;922.7828;;;;
2021/11/04 05:13:22;;;;;;;0.8;0.8;;;;;;;5.01;90.7373;922.8111;;;;
2021/11/04 05:16:02;;;;;;;1;0.8;;;;;;;4.94;90.38379;922.8773;;;;
2021/11/04 05:18:29;;;;;;;0.7;0.7;;;;;;;4.88;89.9209;922.8677;;;;
2021/11/04 05:20:59;;;;;;;1.2;1;;;;;;;4.72;90.3623;922.9422;;;;
2021/11/04 05:23:27;;;;;;;0.9;0.9;;;;;;;4.46;91.72266;923.0519;;;;
2021/11/04 05:25:52;;;;;;;1.7;1.6;;;;;;;4.46;92.05176;923.1339;;;;
2021/11/04 05:28:20;;;;;;;2.1;1.9;;;;;;;4.51;92.6377;923.1666;;;;
2021/11/04 05:30:46;;;;;;;2.4;1.9;;;;;;;4.6;92.64355;923.1917;;;;
2021/11/04 05:33:10;;;;;;;2.5;1.8;;;;;;;4.69;91.9541;923.2596;;;;
2021/11/04 05:35:35;;;;;;;1.6;1.5;;;;;;;4.84;91.69141;923.279;;;;
2021/11/04 05:38:01;;;;;;;2.8;2.2;;;;;;;4.94;91.72656;923.3262;;;;
2021/11/04 05:40:26;;;;;;;2.8;2.2;;;;;;;4.97;91.92383;923.2964;;;;
2021/11/04 05:42:54;;;;;;;1.8;1.7;;;;;;;5.05;91.79492;923.3524;;;;
2021/11/04 05:45:19;;;;;;;1.5;1.4;;;;;;;5;92.40332;923.403;;;;
2021/11/04 05:47:46;;;;;;;1.6;1.4;;;;;;;5.03;91.88086;923.4634;;;;
2021/11/04 05:50:12;;;;;;;2.2;1.9;;;;;;;4.98;92.18457;923.5441;;;;
2021/11/04 05:52:41;;;;;;;1.6;1.5;;;;;;;5.06;92.05566;923.4486;;;;
2021/11/04 05:55:06;;;;;;;1.4;1.1;;;;;;;5.16;91.02832;923.3773;;;;
2021/11/04 05:57:32;;;;;;;1.2;1.1;;;;;;;5.12;90.5459;923.4836;;;;
2021/11/04 05:59:58;;;;;;;1.2;1.1;;;;;;;5.14;90.09863;923.5342;;;;
2021/11/04 06:03:07;;;;;;;2.5;1.9;;;;;;;5.06;90.75781;923.5874;;;;
2021/11/04 06:05:38;;;;;;;2.6;2;;;;;;;5.07;91.26855;923.698;;;;
2021/11/04 06:08:06;;;;;;;2.4;1.3;;;;;;;5.1;91.84961;923.6863;;;;
2021/11/04 06:10:31;;;;;;;1.1;1;;;;;;;5.04;92.45801;923.7333;;;;
2021/11/04 06:12:56;;;;;;;1.8;1.7;;;;;;;5.14;91.41992;923.767;;;;
2021/11/04 06:15:32;;;;;;;1.1;1;;;;;;;5.14;91.30664;923.7828;;;;
2021/11/04 06:17:59;;;;;;;2.4;0.9;;;;;;;5.16;91.11914;923.8381;;;;
2021/11/04 06:20:24;;;;;;;1.6;1.2;;;;;;;5.14;91.07031;923.8404;;;;
2021/11/04 06:22:51;;;;;;;1.4;1.3;;;;;;;5.28;90.1875;923.9472;;;;
2021/11/04 06:25:16;;;;;;;1.2;1.1;;;;;;;5.16;91.41211;923.9991;;;;
2021/11/04 06:27:45;;;;;;;31.9;12.7;;;;;;;5;91.64746;923.866;;;;
2021/11/04 06:30:10;;;;;;;13.5;6.2;;;;;;;4.97;92.27344;923.9841;;;;
2021/11/04 06:32:35;;;;;;;2.1;1.8;;;;;;;4.83;93.57129;923.961;;;;
2021/11/04 06:35:02;;;;;;;1.3;1.2;;;;;;;4.91;93.72461;924.0325;;;;
2021/11/04 06:37:27;;;;;;;0.7;0.7;;;;;;;4.93;93.03027;924.0217;;;;
2021/11/04 06:39:56;;;;;;;1.9;1;;;;;;;4.99;92.89941;924.1633;;;;
2021/11/04 06:42:21;;;;;;;0.6;0.6;;;;;;;5.11;92.25977;924.2236;;;;
2021/11/04 06:44:47;;;;;;;2.6;0.9;;;;;;;5.16;91.38965;924.2531;;;;
2021/11/04 06:47:12;;;;;;;2.7;2.1;;;;;;;5.22;90.87109;924.2419;;;;
2021/11/04 06:49:40;;;;;;;4.7;2.9;;;;;;;5.33;89.74512;924.1424;;;;
2021/11/04 06:52:05;;;;;;;4.6;2.9;;;;;;;5.35;90.03125;924.2294;;;;
2021/11/04 06:54:31;;;;;;;4.9;3.1;;;;;;;5.36;90.56348;924.3328;;;;
2021/11/04 06:56:56;;;;;;;2.6;2.1;;;;;;;5.31;90.50879;924.2748;;;;
2021/11/04 06:59:21;;;;;;;2.1;1.9;;;;;;;5.43;89.99023;924.3769;;;;
2021/11/04 07:01:53;;;;;;;3.3;2.4;;;;;;;5.3;90.46191;924.4185;;;;
2021/11/04 07:04:18;;;;;;;2.7;2.2;;;;;;;5.32;90.21582;924.3972;;;;
2021/11/04 07:06:47;;;;;;;2.1;1.8;;;;;;;5.3;90.86816;924.4886;;;;
2021/11/04 07:09:08;;;;;;;5;2.1;;;;;;;5.49;90.91797;924.6101;;;;
2021/11/04 07:11:36;;;;;;;3.1;2.5;;;;;;;5.5;91.03418;924.6213;;;;
2021/11/04 07:14:00;;;;;;;4.6;3;;;;;;;5.56;89.65723;924.6602;;;;
2021/11/04 07:16:32;;;;;;;3.5;2.4;;;;;;;5.56;90.50586;924.751;;;;
2021/11/04 07:18:57;;;;;;;4.9;3.1;;;;;;;5.53;90.93848;924.8077;;;;
2021/11/04 07:21:24;;;;;;;3.8;3.1;;;;;;;5.38;90.37598;924.853;;;;
2021/11/04 07:23:48;;;;;;;3.7;3.3;;;;;;;5.47;90.8916;924.9359;;;;
2021/11/04 07:26:16;;;;;;;5.8;4;;;;;;;5.34;91.25879;924.8599;;;;
2021/11/04 07:28:41;;;;;;;4.2;3.7;;;;;;;5.45;91.51758;925.0053;;;;
2021/11/04 07:31:08;;;;;;;26.7;12.2;;;;;;;5.45;91.80273;925.0898;;;;
2021/11/04 07:33:33;;;;;;;23;10.7;;;;;;;5.62;91.75879;925.1425;;;;
2021/11/04 07:36:01;;;;;;;6.4;4.6;;;;;;;5.43;92.27148;925.122;;;;
2021/11/04 07:38:26;;;;;;;4.3;3.3;;;;;;;5.51;91.99512;925.1841;;;;
2021/11/04 07:40:54;;;;;;;7.5;4.6;;;;;;;5.53;92.36035;925.1345;;;;
2021/11/04 07:43:19;;;;;;;5.8;4.4;;;;;;;5.65;92.11719;925.2453;;;;
2021/11/04 07:45:46;;;;;;;5.7;4.1;;;;;;;5.74;90.71191;925.3264;;;;
2021/11/04 07:48:12;;;;;;;3.8;2.9;;;;;;;5.61;89.81543;925.2111;;;;
2021/11/04 07:50:40;;;;;;;4.4;3.1;;;;;;;5.67;90.78613;925.3569;;;;
2021/11/04 07:53:05;;;;;;;4.6;3.2;;;;;;;5.83;90.66309;925.4197;;;;
2021/11/04 07:55:36;;;;;;;36.4;19.3;;;;;;;5.64;91.1084;925.344;;;;
2021/11/04 07:58:05;;;;;;;19.4;11.5;;;;;;;5.79;90.80176;925.4278;;;;
2021/11/04 08:00:31;;;;;;;4.6;3.1;;;;;;;5.83;90.55957;925.4608;;;;
2021/11/04 08:02:59;;;;;;;5.4;3.2;;;;;;;5.93;90.11914;925.509;;;;
2021/11/04 08:05:25;;;;;;;4.4;2.9;;;;;;;5.96;89.75391;925.5392;;;;
2021/11/04 08:07:49;;;;;;;5.2;3.5;;;;;;;5.92;89.34961;925.5161;;;;
2021/11/04 08:10:18;;;;;;;3.1;2.6;;;;;;;6.12;89.23438;925.5151;;;;
2021/11/04 08:12:48;;;;;;;5.4;3.8;;;;;;;6.22;88.51855;925.4812;;;;
2021/11/04 08:15:13;;;;;;;3.8;3;;;;;;;6.16;89.41113;925.5896;;;;
2021/11/04 08:17:38;;;;;;;2.4;1.9;;;;;;;6.26;89.55469;925.5533;;;;
2021/11/04 08:20:12;;;;;;;3;2.1;;;;;;;6.27;88.26953;925.5359;;;;
2021/11/04 08:22:41;;;;;;;2.4;2;;;;;;;6.37;88.65039;925.6139;;;;
2021/11/04 08:25:06;;;;;;;2;1.8;;;;;;;6.51;87.83203;925.6345;;;;
2021/11/04 08:27:32;;;;;;;1.1;1;;;;;;;6.43;86.74219;925.7615;;;;
2021/11/04 08:29:56;;;;;;;1.2;0.8;;;;;;;6.55;85.70313;925.7461;;;;
2021/11/04 08:32:22;;;;;;;1.5;1;;;;;;;6.75;85.66309;925.7629;;;;
2021/11/04 08:34:48;;;;;;;1.7;1;;;;;;;6.99;85.79102;925.8961;;;;
2021/11/04 08:37:13;;;;;;;1.4;0.7;;;;;;;7;83.39258;925.9595;;;;
2021/11/04 08:39:38;;;;;;;1.1;0.7;;;;;;;7.09;82.69629;925.8769;;;;
2021/11/04 08:42:04;;;;;;;0.8;0.8;;;;;;;7.35;82.41602;925.8134;;;;
2021/11/04 08:44:30;;;;;;;3.7;1.1;;;;;;;7.35;83.23242;925.8443;;;;
2021/11/04 08:46:55;;;;;;;1.2;1.1;;;;;;;7.66;82.0332;925.9885;;;;
2021/11/04 08:49:22;;;;;;;1.9;1.8;;;;;;;7.89;82.28418;926.0934;;;;
2021/11/04 08:51:47;;;;;;;2.2;1.6;;;;;;;7.89;80.60254;926.1472;;;;
2021/11/04 08:54:13;;;;;;;2;1.5;;;;;;;8.06;80.71484;926.183;;;;
2021/11/04 08:56:38;;;;;;;1.7;1.6;;;;;;;7.89;81.37402;926.1433;;;;
2021/11/04 08:59:04;;;;;;;1.1;1;;;;;;;8.09;78.50586;926.2299;;;;
2021/11/04 09:01:30;;;;;;;1;0.9;;;;;;;8.08;80.22949;926.2845;;;;
2021/11/04 09:03:56;;;;;;;0.8;0.7;;;;;;;7.83;81.56836;926.2581;;;;
2021/11/04 09:06:21;;;;;;;1.1;1;;;;;;;8.11;79.79395;926.1711;;;;
2021/11/04 09:08:48;;;;;;;1.4;0.8;;;;;;;8.28;78.57422;926.2592;;;;
2021/11/04 09:11:13;;;;;;;0.8;0.8;;;;;;;8.06;78.18262;926.3273;;;;
2021/11/04 09:13:42;;;;;;;1.4;0.9;;;;;;;8.14;77.95898;926.2598;;;;
2021/11/04 09:16:11;;;;;;;1.2;1;;;;;;;7.89;77.25488;926.351;;;;
2021/11/04 09:18:38;;;;;;;0.6;0.5;;;;;;;7.82;76.84473;926.4294;;;;
2021/11/04 09:21:03;;;;;;;0.6;0.2;;;;;;;8.06;75.39063;926.4359;;;;
2021/11/04 09:26:15;;;;;;;0.5;0.3;;;;;;;8.92;76.28027;926.4959;;;;
2021/11/04 09:28:40;;;;;;;1.2;0.8;;;;;;;9.3;73.52344;926.3702;;;;
2021/11/04 09:31:07;;;;;;;0.3;0.3;;;;;;;9.45;69.4502;926.4618;;;;
2021/11/04 09:33:30;;;;;;;0.7;0.5;;;;;;;9.55;73.71289;926.5145;;;;
2021/11/04 09:35:56;;;;;;;1.5;1.1;;;;;;;9.76;71.96289;926.507;;;;
2021/11/04 09:38:21;;;;;;;0.6;0.6;;;;;;;10.01;69.66406;926.5477;;;;
2021/11/04 09:40:48;;;;;;;0.7;0.6;;;;;;;10.05;66.67285;926.4816;;;;
2021/11/04 09:43:13;;;;;;;0.7;0.7;;;;;;;10.21;66.04688;926.627;;;;
2021/11/04 09:45:39;;;;;;;0.7;0.7;;;;;;;10.39;64.04199;926.6457;;;;
2021/11/04 09:48:04;;;;;;;0.9;0.4;;;;;;;10.37;63.20703;926.6705;;;;
2021/11/04 09:50:31;;;;;;;1;0.6;;;;;;;10.06;63.61816;926.6152;;;;
2021/11/04 09:52:57;;;;;;;2.1;0.6;;;;;;;9.95;67.60254;926.7604;;;;
2021/11/04 09:55:25;;;;;;;0.3;0.2;;;;;;;9.43;67.4668;926.7328;;;;
2021/11/04 09:57:49;;;;;;;0.5;0.5;;;;;;;9.34;65.14941;926.7203;;;;
2021/11/04 10:00:18;;;;;;;0.4;0.4;;;;;;;9.8;64.76465;926.6563;;;;
2021/11/04 10:02:44;;;;;;;1.3;0.5;;;;;;;9.92;69.2627;926.759;;;;
2021/11/04 10:05:08;;;;;;;2.1;0.5;;;;;;;9.54;67.49316;926.7886;;;;
2021/11/04 10:07:33;;;;;;;0.4;0.4;;;;;;;9.22;66.07813;926.8304;;;;
2021/11/04 10:10:00;;;;;;;1.7;0.8;;;;;;;9.06;69.83105;926.88;;;;
2021/11/04 10:12:25;;;;;;;2.8;0.8;;;;;;;9.38;69.00586;926.8869;;;;
2021/11/04 10:14:53;;;;;;;3.7;1.4;;;;;;;9.47;70.15918;926.8764;;;;
2021/11/04 10:17:20;;;;;;;4.6;1.3;;;;;;;9.56;69.86719;926.8847;;;;
2021/11/04 10:19:45;;;;;;;3.4;1.1;;;;;;;9.94;68.10254;926.856;;;;
2021/11/04 10:22:10;;;;;;;1.1;0.8;;;;;;;9.85;68.15723;926.9106;;;;
2021/11/04 10:24:35;;;;;;;1.7;0.5;;;;;;;9.69;64.53027;926.8008;;;;
2021/11/04 10:27:00;;;;;;;1.1;0.9;;;;;;;9.71;66.36816;926.9342;;;;
2021/11/04 10:29:50;;;;;;;1.4;0.6;;;;;;;9.9;68.32422;926.9348;;;;
2021/11/04 10:32:01;;;;;;;0.6;0.6;;;;;;;10.17;65.65332;927.0463;;;;
2021/11/04 10:34:28;;;;;;;1.5;0.6;;;;;;;10.04;64.82324;927.0695;;;;
2021/11/04 10:36:53;;;;;;;2.8;1.5;;;;;;;10.17;67.09082;927.1417;;;;
2021/11/04 10:39:18;;;;;;;0.7;0.3;;;;;;;9.98;62.89746;927.0854;;;;
2021/11/04 10:41:44;;;;;;;1.6;0.9;;;;;;;10.18;65.26563;927.1337;;;;
2021/11/04 10:44:11;;;;;;;0.3;0.3;;;;;;;10.17;62.91406;927.1489;;;;
2021/11/04 10:46:36;;;;;;;0.3;0.3;;;;;;;10.45;63.09277;927.1786;;;;
2021/11/04 10:49:05;;;;;;;0.4;0.4;;;;;;;10.7;63.0957;927.2731;;;;
2021/11/04 10:51:30;;;;;;;2.3;0.7;;;;;;;10.88;64.16016;927.2629;;;;
2021/11/04 10:53:56;;;;;;;0.7;0.4;;;;;;;11.13;61.54492;927.2773;;;;
2021/11/04 10:56:20;;;;;;;0.4;0.4;;;;;;;10.71;62.71973;927.2706;;;;
2021/11/04 10:58:45;;;;;;;0.4;0.4;;;;;;;10.94;63.25586;927.3061;;;;
2021/11/04 11:01:13;;;;;;;0.8;0.7;;;;;;;11.17;61.31055;927.222;;;;
2021/11/04 11:03:38;;;;;;;0.7;0.3;;;;;;;11.09;60.29395;927.2754;;;;
2021/11/04 11:06:03;;;;;;;0.6;0.5;;;;;;;10.81;60.28906;927.2285;;;;
2021/11/04 11:08:29;;;;;;;0.8;0.4;;;;;;;11.17;60.71582;927.2849;;;;
2021/11/04 11:10:54;;;;;;;0.6;0.5;;;;;;;11.18;60.16797;927.335;;;;
2021/11/04 11:13:22;;;;;;;0.5;0.5;;;;;;;11.63;61.1123;927.345;;;;
2021/11/04 11:15:47;;;;;;;3;0.7;;;;;;;11.58;61.58691;927.3804;;;;
2021/11/04 11:18:12;;;;;;;0.5;0.4;;;;;;;11.9;58.76953;927.4394;;;;
2021/11/04 11:20:37;;;;;;;1.8;0.5;;;;;;;11.87;60.44922;927.4327;;;;
2021/11/04 11:23:03;;;;;;;0.8;0.6;;;;;;;12.3;61.35547;927.3635;;;;
2021/11/04 11:25:31;;;;;;;0.4;0.4;;;;;;;12.34;55.65234;927.4059;;;;
2021/11/04 11:28:10;;;;;;;0.4;0.3;;;;;;;12.33;55.42188;927.4644;;;;
2021/11/04 11:30:27;;;;;;;0.2;0.2;;;;;;;11.9;56.14648;927.4969;;;;
2021/11/04 11:32:56;;;;;;;0.5;0.3;;;;;;;12.12;56.82617;927.5597;;;;
2021/11/04 11:35:19;;;;;;;0.3;0.3;;;;;;;12.15;54.2998;927.6158;;;;
2021/11/04 11:37:44;;;;;;;0.3;0.3;;;;;;;13.48;51.58008;927.4164;;;;
2021/11/04 11:40:13;;;;;;;1.9;1.5;;;;;;;14.67;49.875;927.4835;;;;
2021/11/04 11:42:36;;;;;;;2.1;0.3;;;;;;;13.96;50.82031;927.5353;;;;
2021/11/04 11:45:02;;;;;;;0.9;0.2;;;;;;;16.43;44.60352;927.5126;;;;
2021/11/04 11:47:27;;;;;;;0.3;0.3;;;;;;;15.6;44.19531;927.6057;;;;
2021/11/04 11:49:52;;;;;;;0.6;0.6;;;;;;;14.78;48.36719;927.5449;;;;
2021/11/04 11:52:17;;;;;;;0.2;0.2;;;;;;;13.71;49.44434;927.7394;;;;
2021/11/04 11:54:42;;;;;;;0.5;0.3;;;;;;;13.79;51.3623;927.7731;;;;
2021/11/04 11:57:08;;;;;;;0.7;0.2;;;;;;;13.13;50.50488;927.8441;;;;
2021/11/04 11:59:33;;;;;;;2.6;0.4;;;;;;;12.28;54.84277;927.896;;;;
2021/11/04 12:01:58;;;;;;;1;0.3;;;;;;;11.92;54.77441;927.968;;;;
2021/11/04 12:04:23;;;;;;;0.9;0.4;;;;;;;11.14;52.58301;927.9592;;;;
2021/11/04 12:06:48;;;;;;;0.9;0.2;;;;;;;10.88;52.18555;927.8689;;;;
2021/11/04 12:09:13;;;;;;;0.1;0.1;;;;;;;10.27;55.84473;927.9936;;;;
2021/11/04 12:11:48;;;;;;;0.9;0.4;;;;;;;10.37;53.09473;928.0447;;;;
2021/11/04 12:14:08;;;;;;;1.2;0.6;;;;;;;10.61;56.30957;928.0123;;;;
2021/11/04 12:16:33;;;;;;;0.5;0.3;;;;;;;10.31;56.20215;928.0148;;;;
2021/11/04 12:18:58;;;;;;;0.8;0.8;;;;;;;10.77;57.29004;928.0313;;;;
2021/11/04 12:21:23;;;;;;;1.9;1;;;;;;;11.39;56.7334;928.1921;;;;
2021/11/04 12:23:48;;;;;;;0.5;0.4;;;;;;;11.33;52.04492;928.2325;;;;
2021/11/04 12:26:15;;;;;;;1.2;0.6;;;;;;;11.72;55.03418;928.2673;;;;
2021/11/04 12:28:40;;;;;;;0.7;0.5;;;;;;;11.73;52.05957;928.3151;;;;
2021/11/04 12:31:05;;;;;;;0.5;0.5;;;;;;;12.3;53.84766;928.2837;;;;
2021/11/04 12:33:30;;;;;;;1.3;1.2;;;;;;;12.12;53.17188;928.4166;;;;
2021/11/04 12:35:59;;;;;;;1.2;0.7;;;;;;;11.87;53.32422;928.4058;;;;
2021/11/04 12:38:22;;;;;;;1.9;0.7;;;;;;;11.36;49.71582;928.4754;;;;
2021/11/04 12:40:47;;;;;;;5.3;1;;;;;;;11.28;52.28027;928.5797;;;;
2021/11/04 12:43:11;;;;;;;0.4;0.4;;;;;;;10.96;54.8252;928.5053;;;;
2021/11/04 12:45:44;;;;;;;1.6;0.2;;;;;;;11.07;55.15723;928.5748;;;;
2021/11/04 12:48:04;;;;;;;0.2;0.2;;;;;;;10.6;53.44141;928.5878;;;;
2021/11/04 12:50:29;;;;;;;0.1;0.1;;;;;;;10.36;51.40332;928.6805;;;;
2021/11/04 12:52:54;;;;;;;0.9;0.2;;;;;;;10.41;55.98633;928.6238;;;;
2021/11/04 12:55:20;;;;;;;0.7;0.1;;;;;;;10.18;57.99902;928.7182;;;;
2021/11/04 12:57:45;;;;;;;1;0.1;;;;;;;10.12;57.53613;928.7344;;;;
2021/11/04 13:00:11;;;;;;;0.8;0.5;;;;;;;10.11;50.97363;928.6478;;;;
2021/11/04 13:02:36;;;;;;;1.6;0.3;;;;;;;9.87;52.66895;928.7693;;;;
2021/11/04 13:05:00;;;;;;;2.6;0.2;;;;;;;9.33;51.46289;928.8103;;;;
2021/11/04 13:07:25;;;;;;;0.1;0.1;;;;;;;9.39;54.08984;928.8086;;;;
2021/11/04 13:09:50;;;;;;;0.8;0.3;;;;;;;9.31;53.23828;928.8334;;;;
2021/11/04 13:12:16;;;;;;;0.8;0.2;;;;;;;9.14;56.45996;928.9277;;;;
2021/11/04 13:14:41;;;;;;;2.6;0.4;;;;;;;9.27;55.48633;928.8795;;;;
2021/11/04 13:17:06;;;;;;;0.2;0.2;;;;;;;9.48;60.24023;928.9113;;;;
2021/11/04 13:19:31;;;;;;;0.9;0.3;;;;;;;9.4;54.50195;928.9094;;;;
2021/11/04 13:21:56;;;;;;;2.1;0.5;;;;;;;9.36;56.11328;929.0303;;;;
2021/11/04 13:24:21;;;;;;;0.5;0.2;;;;;;;9.2;54.18066;929.0031;;;;
2021/11/04 13:26:50;;;;;;;0.2;0.2;;;;;;;9.28;56.24023;929.059;;;;
2021/11/04 13:29:13;;;;;;;0.2;0.2;;;;;;;9.11;60.04102;929.2048;;;;
2021/11/04 13:31:38;;;;;;;2;0.7;;;;;;;9.06;60.72754;929.2445;;;;
2021/11/04 13:34:05;;;;;;;1.7;1.1;;;;;;;8.89;56.99609;929.2068;;;;
2021/11/04 13:36:31;;;;;;;0.9;0.6;;;;;;;9.09;55.86133;929.355;;;;
2021/11/04 13:38:56;;;;;;;0.6;0.6;;;;;;;9.3;56.73047;929.4824;;;;
2021/11/04 13:41:24;;;;;;;0.4;0.4;;;;;;;9.4;61.94824;929.6031;;;;
2021/11/04 13:43:57;;;;;;;0.3;0.3;;;;;;;9.2;54.28223;929.5709;;;;
2021/11/04 13:46:21;;;;;;;0.1;0.1;;;;;;;8.98;54.41406;929.5309;;;;
2021/11/04 13:48:46;;;;;;;3.6;0.9;;;;;;;9.08;54.25586;929.6329;;;;
2021/11/04 13:51:11;;;;;;;0.5;0.3;;;;;;;9.13;54.3877;929.7188;;;;
2021/11/04 13:53:38;;;;;;;0.2;0.2;;;;;;;9.28;56.99023;929.7985;;;;
2021/11/04 13:56:03;;;;;;;1.9;1.3;;;;;;;9.27;56.10156;929.7898;;;;
2021/11/04 13:58:30;;;;;;;0.2;0.2;;;;;;;9;55.83984;929.8;;;;
2021/11/04 14:00:55;;;;;;;0.2;0.2;;;;;;;9.04;55.69531;929.8624;;;;
2021/11/04 14:03:21;;;;;;;1.3;1;;;;;;;9.2;56.5127;929.8808;;;;
2021/11/04 14:05:46;;;;;;;1.6;0.7;;;;;;;9.32;56.62012;929.9875;;;;
2021/11/04 14:08:13;;;;;;;0.6;0.4;;;;;;;9.46;57.60645;929.9816;;;;
2021/11/04 14:10:37;;;;;;;3;2.4;;;;;;;9.41;57.00781;930.1325;;;;
2021/11/04 14:13:08;;;;;;;3.1;1.6;;;;;;;9.34;56.83887;930.2148;;;;
2021/11/04 14:15:33;;;;;;;1.6;1.2;;;;;;;9.27;60.12012;930.3323;;;;
2021/11/04 14:17:59;;;;;;;0.9;0.8;;;;;;;9.32;61.03809;930.3666;;;;
2021/11/04 14:20:24;;;;;;;0.9;0.7;;;;;;;9.29;60.07715;930.3387;;;;
2021/11/04 14:22:49;;;;;;;1.2;0.7;;;;;;;9.28;62.43359;930.4395;;;;
2021/11/04 14:25:14;;;;;;;0.7;0.5;;;;;;;9.27;62.68164;930.4221;;;;
2021/11/04 14:27:40;;;;;;;0.8;0.5;;;;;;;9.24;62.42578;930.4117;;;;
2021/11/04 14:30:05;;;;;;;0.6;0.6;;;;;;;9.19;59.90332;930.5385;;;;
2021/11/04 14:32:31;;;;;;;0.8;0.8;;;;;;;9.13;60.43066;930.632;;;;
2021/11/04 14:34:56;;;;;;;0.9;0.7;;;;;;;8.88;61.07813;930.5595;;;;
2021/11/04 14:37:21;;;;;;;1.3;0.5;;;;;;;8.71;63.69141;930.6459;;;;
2021/11/04 14:39:48;;;;;;;1.1;0.8;;;;;;;8.78;62.32422;930.7113;;;;
2021/11/04 14:42:13;;;;;;;0.7;0.7;;;;;;;8.66;62.51367;930.6958;;;;